Time;durP1;ratioP1;P1;durP2;ratioP2;P2;SDS_P1;SDS_P2;PMS_P1;PMS_P2;Temp;Humidity;BMP_temperature;BMP_pressure;BME280_temperature;BME280_humidity;BME280_pressure;Samples;Min_cycle;Max_cycle;Signal;HPM_P1;HPM_P2
2021/12/16 00:03:44;;;;;;;5.80;4.60;;;10.20;99.90;;;;;;4951640;28;20204;-59
2021/12/16 00:09:46;;;;;;;4.13;3.53;;;10.20;99.90;;;;;;4920672;29;20671;-59
2021/12/16 00:32:20;;;;;;;9.13;5.03;;;10.20;99.90;;;;;;4951582;29;20211;-58
2021/12/16 00:34:58;;;;;;;5.87;4.23;;;10.20;99.90;;;;;;4966092;28;20267;-59
2021/12/16 00:37:51;;;;;;;8.33;5.10;;;10.20;99.90;;;;;;4966753;28;20683;-59
2021/12/16 00:40:54;;;;;;;8.07;5.37;;;10.20;99.90;;;;;;4959194;28;20208;-59
2021/12/16 00:47:27;;;;;;;7.83;5.23;;;10.20;99.90;;;;;;4951017;28;20207;-60
2021/12/16 01:34:56;;;;;;;9.97;6.83;;;10.10;99.90;;;;;;4857648;29;20651;-58
2021/12/16 01:40:22;;;;;;;13.87;6.93;;;10.20;99.90;;;;;;4905785;29;20217;-59
2021/12/16 01:49:32;;;;;;;8.27;5.23;;;10.20;99.90;;;;;;4907142;29;20765;-58
2021/12/16 03:13:34;;;;;;;4.33;2.93;;;10.10;99.90;;;;;;4902080;29;20225;-59
2021/12/16 04:10:13;;;;;;;0.80;0.80;;;10.20;99.90;;;;;;4819692;29;20207;-59
2021/12/16 04:12:41;;;;;;;1.20;0.90;;;10.20;99.90;;;;;;4980341;28;20269;-59
2021/12/16 04:15:12;;;;;;;1.87;1.50;;;10.20;99.90;;;;;;4988849;28;20295;-59
2021/12/16 04:17:58;;;;;;;1.80;1.20;;;10.20;99.90;;;;;;5004646;28;20292;-59
2021/12/16 04:20:29;;;;;;;1.50;1.27;;;10.20;99.90;;;;;;4982981;28;20700;-58
2021/12/16 04:22:58;;;;;;;2.10;1.20;;;10.20;99.90;;;;;;5003306;28;20549;-59
2021/12/16 04:25:31;;;;;;;1.93;1.40;;;10.20;99.90;;;;;;4988737;28;20303;-59
2021/12/16 04:28:03;;;;;;;1.47;1.20;;;10.20;99.90;;;;;;4985438;28;20268;-58
2021/12/16 04:30:31;;;;;;;1.27;1.17;;;10.20;99.90;;;;;;4972470;28;20199;-58
2021/12/16 04:33:01;;;;;;;1.23;1.13;;;10.20;99.90;;;;;;5026127;28;20293;-58
2021/12/16 04:35:32;;;;;;;1.03;1.03;;;10.20;99.90;;;;;;5011494;28;20213;-58
2021/12/16 04:38:00;;;;;;;1.10;1.10;;;10.20;99.90;;;;;;5015344;28;20706;-57
2021/12/16 04:40:29;;;;;;;1.37;1.27;;;10.20;99.90;;;;;;5019655;28;20274;-58
2021/12/16 04:43:02;;;;;;;1.40;1.30;;;10.20;99.90;;;;;;5023727;28;20228;-58
2021/12/16 04:45:38;;;;;;;1.37;1.20;;;10.20;99.90;;;;;;5024257;28;20213;-59
2021/12/16 04:48:21;;;;;;;1.23;1.20;;;10.20;99.90;;;;;;5029120;28;20215;-58
2021/12/16 04:50:54;;;;;;;1.50;1.30;;;10.20;99.90;;;;;;5027482;28;20512;-58
2021/12/16 04:53:33;;;;;;;2.80;1.57;;;10.20;99.90;;;;;;5026890;28;20212;-58
2021/12/16 04:56:02;;;;;;;4.37;1.80;;;10.20;99.90;;;;;;5043747;28;20349;-59
2021/12/16 04:58:53;;;;;;;2.50;1.70;;;10.10;99.90;;;;;;5039536;28;20358;-57
2021/12/16 05:01:21;;;;;;;1.37;1.20;;;10.00;99.90;;;;;;5014735;28;20312;-57
2021/12/16 05:03:51;;;;;;;1.50;1.40;;;10.00;99.90;;;;;;5020016;28;20214;-57
2021/12/16 05:06:21;;;;;;;1.00;1.00;;;10.00;99.90;;;;;;5029860;28;20215;-57
2021/12/16 05:08:49;;;;;;;1.50;1.30;;;10.10;99.90;;;;;;5030294;28;20202;-58
2021/12/16 05:11:35;;;;;;;2.93;1.67;;;10.10;99.90;;;;;;5020330;28;20596;-57
2021/12/16 05:14:06;;;;;;;1.80;1.60;;;10.10;99.90;;;;;;5024169;28;20671;-58
2021/12/16 05:16:36;;;;;;;1.77;1.67;;;10.10;99.90;;;;;;5041091;28;20209;-58
2021/12/16 05:19:03;;;;;;;1.63;1.20;;;10.00;99.90;;;;;;5022017;28;20236;-58
2021/12/16 05:21:44;;;;;;;1.97;1.80;;;10.00;99.90;;;;;;5010767;28;20271;-58
2021/12/16 05:24:25;;;;;;;1.60;1.50;;;10.00;99.90;;;;;;5020250;28;20242;-58
2021/12/16 05:27:00;;;;;;;1.70;1.60;;;10.00;99.90;;;;;;5037653;28;20578;-58
2021/12/16 05:29:28;;;;;;;1.73;1.57;;;9.90;99.90;;;;;;5067761;28;20203;-58
2021/12/16 05:32:00;;;;;;;2.20;1.90;;;9.90;99.90;;;;;;5054988;28;20288;-58
2021/12/16 05:34:29;;;;;;;2.47;1.80;;;9.90;99.90;;;;;;5071087;28;20222;-58
2021/12/16 05:36:56;;;;;;;1.70;1.60;;;9.90;99.90;;;;;;5069996;28;20735;-58
2021/12/16 05:39:25;;;;;;;1.90;1.80;;;9.90;99.90;;;;;;5070892;28;20285;-58
2021/12/16 05:42:14;;;;;;;1.70;1.40;;;9.90;99.90;;;;;;5019818;28;20562;-58
2021/12/16 05:44:42;;;;;;;2.33;1.63;;;9.90;99.90;;;;;;5064198;28;20224;-58
2021/12/16 05:47:10;;;;;;;1.97;1.80;;;9.90;99.90;;;;;;5063814;28;20200;-58
2021/12/16 05:49:37;;;;;;;2.10;1.57;;;9.90;99.90;;;;;;5068357;28;20199;-58
2021/12/16 05:52:05;;;;;;;2.90;1.50;;;9.90;99.90;;;;;;5085112;28;20678;-58
2021/12/16 05:54:33;;;;;;;2.20;1.47;;;9.90;99.90;;;;;;5059271;28;20200;-58
2021/12/16 05:57:13;;;;;;;1.60;1.33;;;9.90;99.90;;;;;;5054929;28;20223;-58
2021/12/16 05:59:45;;;;;;;2.17;1.50;;;9.90;99.90;;;;;;5065437;28;20200;-57
2021/12/16 06:02:13;;;;;;;1.87;1.37;;;10.00;99.90;;;;;;5071951;28;20262;-58
2021/12/16 06:04:41;;;;;;;1.00;1.00;;;10.00;99.90;;;;;;5086669;28;20284;-57
2021/12/16 06:07:15;;;;;;;1.53;1.40;;;10.00;99.90;;;;;;5090852;28;20541;-58
2021/12/16 06:09:47;;;;;;;1.60;1.50;;;10.00;99.90;;;;;;5072677;28;20203;-59
2021/12/16 06:12:17;;;;;;;1.90;1.50;;;10.10;99.90;;;;;;5089557;28;20202;-58
2021/12/16 06:15:03;;;;;;;1.23;1.13;;;10.10;99.90;;;;;;5092544;28;20239;-59
2021/12/16 06:28:34;;;;;;;2.77;1.30;;;10.10;99.90;;;;;;5130560;27;20198;-59
2021/12/16 06:31:01;;;;;;;2.13;1.20;;;10.10;99.90;;;;;;5132293;27;20661;-59
2021/12/16 06:33:29;;;;;;;1.77;1.20;;;10.10;99.90;;;;;;5126866;27;20198;-59
2021/12/16 06:35:57;;;;;;;2.53;1.20;;;10.10;99.90;;;;;;5132740;27;20185;-59
2021/12/16 06:38:25;;;;;;;0.83;0.83;;;10.20;99.90;;;;;;5114515;27;20205;-59
2021/12/16 06:41:12;;;;;;;1.10;0.90;;;10.20;99.90;;;;;;5116184;27;20200;-58
2021/12/16 06:43:45;;;;;;;1.13;1.03;;;10.20;99.90;;;;;;5122766;27;20628;-58
2021/12/16 06:46:16;;;;;;;0.80;0.80;;;10.20;99.90;;;;;;5108265;27;20259;-58
2021/12/16 06:48:47;;;;;;;1.43;0.70;;;10.20;99.90;;;;;;5125881;27;20214;-58
2021/12/16 06:51:20;;;;;;;0.60;0.60;;;10.20;99.90;;;;;;5128744;27;20272;-58
2021/12/16 06:53:52;;;;;;;0.60;0.60;;;10.20;99.90;;;;;;5125015;27;20592;-58
2021/12/16 06:56:25;;;;;;;0.80;0.80;;;10.20;99.90;;;;;;5121665;27;20201;-58
2021/12/16 06:59:05;;;;;;;0.50;0.50;;;10.30;99.90;;;;;;5114469;27;20301;-58
2021/12/16 07:01:38;;;;;;;0.80;0.80;;;10.30;99.90;;;;;;5115718;27;20206;-58
2021/12/16 07:04:08;;;;;;;0.60;0.60;;;10.20;99.90;;;;;;5129003;27;20218;-58
2021/12/16 07:10:10;;;;;;;0.87;0.80;;;10.20;99.90;;;;;;5127699;27;20245;-58
2021/12/16 07:12:39;;;;;;;0.80;0.80;;;10.20;99.90;;;;;;5109088;27;20191;-58
2021/12/16 07:15:10;;;;;;;1.70;1.00;;;10.20;99.90;;;;;;5123521;27;20253;-58
2021/12/16 07:17:39;;;;;;;1.03;0.73;;;10.10;99.90;;;;;;5130290;27;20220;-58
2021/12/16 07:20:09;;;;;;;2.00;0.80;;;10.10;99.90;;;;;;5119574;27;20535;-58
2021/12/16 07:22:36;;;;;;;0.70;0.70;;;10.20;99.90;;;;;;5117987;27;20194;-58
2021/12/16 07:25:03;;;;;;;1.23;0.93;;;10.10;99.90;;;;;;5117575;27;20742;-59
2021/12/16 07:27:33;;;;;;;1.30;0.70;;;10.10;99.90;;;;;;5093823;28;20813;-58
2021/12/16 07:30:00;;;;;;;1.20;1.10;;;10.20;99.90;;;;;;5117166;27;20200;-58
2021/12/16 07:32:29;;;;;;;1.40;1.30;;;10.20;99.90;;;;;;5116629;27;20223;-59
2021/12/16 07:34:56;;;;;;;1.87;1.20;;;10.10;99.90;;;;;;5119713;27;20195;-59
2021/12/16 07:37:23;;;;;;;1.50;1.00;;;10.10;99.90;;;;;;5109256;28;20195;-58
2021/12/16 07:39:52;;;;;;;2.83;1.30;;;10.00;99.90;;;;;;5119910;27;20443;-59
2021/12/16 07:42:26;;;;;;;1.30;1.03;;;10.00;99.90;;;;;;5126347;27;20193;-58
2021/12/16 07:44:53;;;;;;;1.67;1.00;;;10.00;99.90;;;;;;5126512;27;20209;-59
2021/12/16 07:47:20;;;;;;;1.00;0.90;;;10.00;99.90;;;;;;5128590;27;20198;-59
2021/12/16 07:49:49;;;;;;;1.57;0.90;;;10.00;99.90;;;;;;5123133;27;20542;-58
2021/12/16 07:52:20;;;;;;;1.30;0.80;;;10.00;99.90;;;;;;5108357;28;20578;-58
2021/12/16 07:54:47;;;;;;;3.10;0.90;;;10.00;99.90;;;;;;5119892;27;20287;-58
2021/12/16 07:57:14;;;;;;;0.83;0.80;;;10.10;99.90;;;;;;5115204;27;20604;-58
2021/12/16 07:59:42;;;;;;;4.30;1.50;;;10.00;99.90;;;;;;5123494;27;20229;-57
2021/12/16 08:02:14;;;;;;;3.20;1.50;;;10.00;99.90;;;;;;5121236;27;20196;-58
2021/12/16 08:04:45;;;;;;;5.33;1.77;;;10.00;99.90;;;;;;5116166;27;20302;-59
2021/12/16 08:07:18;;;;;;;3.57;1.17;;;10.00;99.90;;;;;;5116596;27;20205;-58
2021/12/16 08:09:46;;;;;;;3.33;1.73;;;10.00;99.90;;;;;;5103290;27;20614;-57
2021/12/16 08:12:16;;;;;;;1.43;1.33;;;10.00;99.90;;;;;;5112057;27;20570;-58
2021/12/16 08:14:45;;;;;;;1.93;1.10;;;10.00;99.90;;;;;;5118145;27;20265;-58
2021/12/16 08:17:13;;;;;;;2.33;1.17;;;9.90;99.90;;;;;;5114867;27;20649;-58
2021/12/16 08:19:40;;;;;;;4.77;1.37;;;9.90;99.90;;;;;;5122251;27;20183;-58
2021/12/16 08:22:11;;;;;;;8.90;1.80;;;9.80;99.90;;;;;;5104324;27;20202;-58
2021/12/16 08:24:40;;;;;;;3.80;1.90;;;9.80;99.90;;;;;;5106212;27;20234;-58
2021/12/16 08:27:29;;;;;;;2.40;1.70;;;9.80;99.90;;;;;;5117332;27;20271;-60
2021/12/16 08:33:14;;;;;;;3.30;1.50;;;9.60;99.90;;;;;;5108327;27;20207;-58
2021/12/16 08:36:21;;;;;;;4.43;1.60;;;9.60;99.90;;;;;;5100993;28;20282;-59
2021/12/16 08:47:19;;;;;;;3.50;1.47;;;9.60;99.90;;;;;;5112449;27;20190;-58
2021/12/16 09:38:46;;;;;;;4.80;1.30;;;10.20;99.90;;;;;;4796433;29;20239;-58
2021/12/16 09:41:14;;;;;;;2.83;1.30;;;10.20;99.90;;;;;;4800069;29;20228;-58
2021/12/16 09:51:22;;;;;;;1.90;1.17;;;10.10;99.90;;;;;;4833899;29;20650;-58
2021/12/16 10:05:11;;;;;;;2.87;1.23;;;10.40;99.90;;;;;;4953868;28;20229;-58
2021/12/16 10:07:39;;;;;;;4.70;1.33;;;10.50;99.90;;;;;;4984606;28;20201;-58
2021/12/16 10:10:09;;;;;;;2.10;1.10;;;10.60;99.90;;;;;;4988563;28;20654;-58
2021/12/16 10:12:40;;;;;;;6.57;1.87;;;10.60;99.90;;;;;;5074198;28;20191;-58
2021/12/16 10:17:23;;;;;;;5.33;1.30;;;10.70;99.90;;;;;;5071811;28;20372;-58
2021/12/16 10:18:05;;;;;;;10.93;1.97;;;10.80;99.90;;;;;;5075228;28;20577;-58
2021/12/16 10:20:39;;;;;;;3.93;1.13;;;10.90;99.90;;;;;;5080348;28;20686;-58
2021/12/16 10:23:11;;;;;;;4.63;1.40;;;11.10;99.90;;;;;;5071484;28;20203;-59
2021/12/16 10:25:41;;;;;;;3.83;1.30;;;11.20;99.90;;;;;;5072536;28;20212;-58
2021/12/16 10:28:14;;;;;;;4.03;1.60;;;11.30;99.90;;;;;;5080528;28;20212;-58
2021/12/16 10:30:58;;;;;;;3.67;1.63;;;11.30;99.90;;;;;;5085570;28;20669;-59
2021/12/16 10:33:30;;;;;;;3.43;1.53;;;11.40;99.90;;;;;;5089113;28;20387;-59
2021/12/16 10:36:07;;;;;;;6.23;1.53;;;11.40;99.90;;;;;;5082277;28;20195;-58
2021/12/16 10:38:38;;;;;;;4.63;1.30;;;11.30;99.90;;;;;;5075922;28;20204;-58
2021/12/16 10:41:07;;;;;;;3.73;1.47;;;11.30;99.90;;;;;;5072584;28;20197;-58
2021/12/16 10:43:40;;;;;;;3.60;1.30;;;11.30;99.90;;;;;;5080025;28;20230;-58
2021/12/16 10:46:09;;;;;;;2.83;1.37;;;11.30;99.90;;;;;;5079584;28;20256;-58
2021/12/16 10:48:39;;;;;;;1.20;1.10;;;11.30;99.90;;;;;;5087418;28;20204;-59
2021/12/16 10:51:18;;;;;;;1.30;0.90;;;11.40;99.90;;;;;;5072232;28;20281;-58
2021/12/16 10:54:15;;;;;;;7.50;1.73;;;11.50;99.90;;;;;;5083056;28;20618;-58
2021/12/16 10:56:48;;;;;;;4.60;1.90;;;11.50;99.90;;;;;;5078985;28;20218;-58
2021/12/16 10:59:19;;;;;;;7.03;1.73;;;11.50;99.90;;;;;;5079183;28;20291;-58
2021/12/16 11:02:02;;;;;;;5.40;1.70;;;11.50;99.90;;;;;;5083382;28;20198;-59
2021/12/16 11:04:34;;;;;;;3.57;1.10;;;11.40;99.90;;;;;;5075750;28;20293;-58
2021/12/16 11:07:09;;;;;;;6.50;1.50;;;11.30;99.90;;;;;;5052312;28;20570;-58
2021/12/16 11:09:48;;;;;;;4.70;1.23;;;11.20;99.90;;;;;;5082874;28;20525;-58
2021/12/16 11:12:21;;;;;;;4.00;1.40;;;11.20;99.90;;;;;;5072497;28;20195;-59
2021/12/16 11:14:52;;;;;;;4.80;1.67;;;11.10;99.90;;;;;;5079540;28;20284;-58
2021/12/16 11:17:22;;;;;;;7.60;1.70;;;11.00;99.90;;;;;;5085303;28;20657;-58
2021/12/16 11:19:57;;;;;;;4.90;1.67;;;10.90;99.90;;;;;;5089044;28;20212;-58
2021/12/16 11:22:31;;;;;;;2.73;1.30;;;10.80;99.90;;;;;;5094389;28;20631;-58
2021/12/16 11:25:10;;;;;;;2.90;1.10;;;10.80;99.90;;;;;;5109730;28;20200;-59
2021/12/16 11:27:38;;;;;;;9.83;1.60;;;10.80;99.90;;;;;;5100647;28;20690;-58
2021/12/16 11:30:30;;;;;;;3.70;1.20;;;10.70;99.90;;;;;;5092731;28;20210;-58
2021/12/16 11:33:10;;;;;;;10.13;2.07;;;10.70;99.90;;;;;;5108837;28;20222;-58
2021/12/16 11:35:42;;;;;;;6.07;1.77;;;10.70;99.90;;;;;;5092518;28;20300;-59
2021/12/16 11:38:17;;;;;;;3.73;1.40;;;10.70;99.90;;;;;;5075339;28;20639;-58
2021/12/16 11:41:08;;;;;;;2.10;1.30;;;10.70;99.90;;;;;;5089551;28;20196;-59
2021/12/16 11:43:44;;;;;;;3.43;1.37;;;10.70;99.90;;;;;;5089787;28;20294;-59
2021/12/16 11:46:23;;;;;;;4.60;1.37;;;10.70;99.90;;;;;;5099576;28;20679;-58
2021/12/16 11:48:52;;;;;;;5.13;1.63;;;10.60;99.90;;;;;;5090529;28;20199;-59
2021/12/16 11:51:24;;;;;;;9.17;1.70;;;10.60;99.90;;;;;;5089400;28;20238;-58
2021/12/16 11:53:57;;;;;;;3.43;1.40;;;10.60;99.90;;;;;;5103791;28;20193;-58
2021/12/16 11:56:39;;;;;;;2.93;1.30;;;10.60;99.90;;;;;;5088212;28;20195;-59
2021/12/16 11:59:07;;;;;;;3.17;1.17;;;10.60;99.90;;;;;;5107644;28;20194;-59
2021/12/16 12:01:37;;;;;;;6.63;1.60;;;10.50;99.90;;;;;;5101746;28;20200;-59
2021/12/16 12:04:07;;;;;;;5.33;1.50;;;10.50;99.90;;;;;;5088757;28;20214;-58
2021/12/16 12:06:36;;;;;;;4.00;1.50;;;10.60;99.90;;;;;;5095489;28;20302;-59
2021/12/16 12:09:08;;;;;;;5.13;2.10;;;10.50;99.90;;;;;;5093735;28;20203;-58
2021/12/16 12:11:38;;;;;;;13.27;2.67;;;10.50;99.90;;;;;;5085949;28;20669;-59
2021/12/16 12:14:08;;;;;;;9.43;2.30;;;10.50;99.90;;;;;;5088599;28;20258;-59
2021/12/16 12:16:38;;;;;;;9.13;1.90;;;10.50;99.90;;;;;;5104154;28;20235;-59
2021/12/16 12:19:13;;;;;;;6.00;1.67;;;10.50;99.90;;;;;;5104297;28;20575;-58
2021/12/16 12:21:43;;;;;;;2.00;1.30;;;10.40;99.90;;;;;;5103193;28;20195;-59
2021/12/16 12:24:16;;;;;;;6.33;1.67;;;10.40;99.90;;;;;;5103411;28;20669;-58
2021/12/16 12:26:48;;;;;;;11.83;2.50;;;10.40;99.90;;;;;;5085385;28;20217;-59
2021/12/16 12:29:19;;;;;;;6.57;2.00;;;10.40;99.90;;;;;;5103511;28;20211;-58
2021/12/16 12:31:49;;;;;;;8.27;2.07;;;10.40;99.90;;;;;;5102137;28;20207;-58
2021/12/16 12:34:18;;;;;;;10.60;2.13;;;10.40;99.90;;;;;;5101656;28;20659;-59
2021/12/16 12:36:48;;;;;;;8.67;2.20;;;10.40;99.90;;;;;;5093441;28;20609;-59
2021/12/16 12:39:20;;;;;;;9.27;2.03;;;10.40;99.90;;;;;;5100071;28;20711;-59
2021/12/16 12:41:48;;;;;;;6.93;2.30;;;10.40;99.90;;;;;;5085165;28;20695;-60
2021/12/16 12:44:16;;;;;;;3.77;1.63;;;10.40;99.90;;;;;;5097642;28;20223;-58
2021/12/16 12:46:45;;;;;;;7.70;2.00;;;10.40;99.90;;;;;;5086917;28;20231;-59
2021/12/16 12:49:16;;;;;;;11.13;2.23;;;10.40;99.90;;;;;;5093652;28;20204;-59
2021/12/16 12:51:46;;;;;;;6.67;1.80;;;10.40;99.90;;;;;;5069063;28;20678;-58
2021/12/16 12:54:23;;;;;;;10.83;2.17;;;10.50;99.90;;;;;;5091550;28;20268;-58
2021/12/16 12:56:54;;;;;;;9.40;2.00;;;10.50;99.90;;;;;;5091328;28;20193;-58
2021/12/16 12:59:21;;;;;;;8.87;1.70;;;10.50;99.90;;;;;;5101167;28;20738;-57
2021/12/16 13:01:51;;;;;;;4.80;1.80;;;10.50;99.90;;;;;;5089793;28;20264;-59
2021/12/16 13:04:23;;;;;;;6.27;2.10;;;10.50;99.90;;;;;;5090390;28;20234;-58
2021/12/16 13:06:54;;;;;;;12.33;2.70;;;10.50;99.90;;;;;;5086983;28;20215;-58
2021/12/16 13:09:43;;;;;;;9.30;2.53;;;10.50;99.90;;;;;;5094195;28;20192;-58
2021/12/16 13:12:36;;;;;;;6.77;1.87;;;10.50;99.90;;;;;;5094453;28;20275;-58
2021/12/16 13:15:20;;;;;;;3.90;1.40;;;10.50;99.90;;;;;;5104738;28;20283;-58
2021/12/16 13:23:38;;;;;;;2.67;1.20;;;10.40;99.90;;;;;;5103273;28;20201;-58
2021/12/16 13:29:08;;;;;;;6.87;2.33;;;10.40;99.90;;;;;;5097711;28;20561;-58
2021/12/16 13:31:46;;;;;;;5.97;1.63;;;10.40;99.90;;;;;;5103413;28;20203;-58
2021/12/16 13:34:48;;;;;;;6.47;1.80;;;10.40;99.90;;;;;;5107783;28;20245;-58
2021/12/16 13:37:22;;;;;;;17.33;2.90;;;10.40;99.90;;;;;;5071031;28;20219;-60
2021/12/16 13:39:54;;;;;;;13.27;2.50;;;10.30;99.90;;;;;;5104226;28;20214;-59
2021/12/16 13:42:24;;;;;;;6.67;2.00;;;10.30;99.90;;;;;;5103027;28;20190;-59
2021/12/16 13:45:05;;;;;;;18.33;2.73;;;10.20;99.90;;;;;;5095327;28;20204;-59
2021/12/16 14:03:01;;;;;;;10.10;2.87;;;10.00;99.90;;;;;;5089034;28;20236;-58
2021/12/16 14:05:44;;;;;;;7.27;2.00;;;10.00;99.90;;;;;;5094366;28;20643;-58
2021/12/16 14:08:13;;;;;;;4.50;1.70;;;9.90;99.90;;;;;;5074702;28;20193;-59
2021/12/16 14:10:54;;;;;;;9.43;2.70;;;9.80;99.90;;;;;;5103932;28;20202;-59
2021/12/16 14:16:42;;;;;;;6.33;2.07;;;9.80;99.90;;;;;;5099851;28;20197;-57
2021/12/16 14:25:25;;;;;;;16.90;2.87;;;9.70;99.90;;;;;;5080849;28;20198;-58
2021/12/16 14:42:09;;;;;;;18.13;3.20;;;9.50;99.90;;;;;;5107684;28;20200;-59
2021/12/16 14:47:57;;;;;;;7.10;1.90;;;9.50;99.90;;;;;;5091340;28;20196;-59
2021/12/16 14:50:30;;;;;;;6.80;2.10;;;9.50;99.90;;;;;;5105094;28;20364;-59
2021/12/16 14:52:59;;;;;;;4.70;1.50;;;9.50;99.90;;;;;;5087005;28;20227;-59
2021/12/16 14:55:28;;;;;;;10.80;3.00;;;9.50;99.90;;;;;;5101413;28;20220;-59
2021/12/16 14:57:57;;;;;;;6.97;2.33;;;9.50;99.90;;;;;;5099976;28;20219;-59
2021/12/16 15:00:32;;;;;;;6.67;2.00;;;9.40;99.90;;;;;;5103010;28;20768;-59
2021/12/16 15:03:03;;;;;;;3.03;1.70;;;9.40;99.90;;;;;;5099419;28;20226;-59
2021/12/16 15:05:38;;;;;;;5.03;1.50;;;9.40;99.90;;;;;;5101927;28;20210;-59
2021/12/16 15:08:09;;;;;;;13.13;2.63;;;9.40;99.90;;;;;;5097161;28;20199;-59
2021/12/16 15:10:37;;;;;;;11.57;2.63;;;9.40;99.90;;;;;;5095151;28;20282;-59
2021/12/16 15:13:11;;;;;;;8.10;2.40;;;9.40;99.90;;;;;;5089987;28;20294;-59
2021/12/16 15:15:46;;;;;;;8.33;2.60;;;9.40;99.90;;;;;;5070017;28;20262;-59
2021/12/16 15:40:59;;;;;;;17.57;3.57;;;9.30;99.90;;;;;;5107180;28;20288;-59
2021/12/16 15:43:32;;;;;;;10.57;2.57;;;9.20;99.90;;;;;;5111897;28;20223;-59
2021/12/16 15:46:03;;;;;;;7.17;2.30;;;9.20;99.90;;;;;;5110653;28;20505;-59
2021/12/16 15:48:31;;;;;;;8.87;2.33;;;9.20;99.90;;;;;;5091320;28;20216;-58
2021/12/16 15:51:00;;;;;;;6.77;1.83;;;9.20;99.90;;;;;;5088294;28;20207;-58
2021/12/16 15:53:31;;;;;;;12.47;2.57;;;9.20;99.90;;;;;;5093926;28;20203;-59
2021/12/16 15:56:05;;;;;;;9.53;2.53;;;9.20;99.90;;;;;;5105850;28;20189;-59
2021/12/16 15:58:35;;;;;;;9.30;2.40;;;9.10;99.90;;;;;;5109666;28;20191;-59
2021/12/16 16:01:07;;;;;;;8.20;2.17;;;9.10;99.90;;;;;;5110226;28;20192;-59
2021/12/16 16:03:35;;;;;;;9.07;2.27;;;9.10;99.90;;;;;;5104778;28;20239;-58
2021/12/16 16:06:07;;;;;;;7.57;1.90;;;9.20;99.90;;;;;;5106974;28;20266;-58
2021/12/16 16:08:39;;;;;;;3.47;1.67;;;9.20;99.90;;;;;;5090552;28;20193;-58
2021/12/16 16:11:09;;;;;;;7.03;2.17;;;9.10;99.90;;;;;;5088258;28;20307;-58
2021/12/16 16:13:42;;;;;;;9.03;2.00;;;9.20;99.90;;;;;;5069551;28;20720;-58
2021/12/16 16:16:11;;;;;;;8.70;2.50;;;9.20;99.90;;;;;;5096000;28;20190;-58
2021/12/16 16:18:42;;;;;;;9.20;2.30;;;9.20;99.90;;;;;;5082137;28;20209;-58
2021/12/16 16:21:13;;;;;;;6.30;2.00;;;9.10;99.90;;;;;;5093714;28;20659;-58
2021/12/16 16:23:44;;;;;;;5.37;1.80;;;9.20;99.90;;;;;;5091062;28;20668;-58
2021/12/16 16:26:15;;;;;;;6.90;1.97;;;9.10;99.90;;;;;;5088362;28;20263;-58
2021/12/16 16:28:45;;;;;;;6.97;1.87;;;9.10;99.90;;;;;;5101933;28;20197;-59
2021/12/16 16:31:17;;;;;;;4.87;1.80;;;9.20;99.90;;;;;;5099165;28;20692;-60
2021/12/16 16:33:44;;;;;;;6.13;2.03;;;9.10;99.90;;;;;;5106725;28;20210;-59
2021/12/16 16:36:14;;;;;;;9.70;2.60;;;9.10;99.90;;;;;;5093754;28;20198;-59
2021/12/16 16:38:45;;;;;;;5.83;1.90;;;9.10;99.90;;;;;;5103678;28;20188;-59
2021/12/16 16:41:14;;;;;;;4.90;1.87;;;9.10;99.90;;;;;;5102797;28;20566;-59
2021/12/16 16:43:44;;;;;;;4.40;1.83;;;9.10;99.90;;;;;;5108027;28;20193;-59
2021/12/16 16:46:15;;;;;;;7.30;1.93;;;9.10;99.90;;;;;;5089458;28;20633;-59
2021/12/16 16:48:50;;;;;;;6.43;2.70;;;9.10;99.90;;;;;;5104794;28;20189;-59
2021/12/16 16:51:22;;;;;;;9.40;2.57;;;9.00;99.90;;;;;;5103150;27;20195;-59
2021/12/16 16:53:58;;;;;;;8.00;2.27;;;9.00;99.90;;;;;;5099463;28;20214;-59
2021/12/16 16:56:57;;;;;;;11.60;2.90;;;9.00;99.90;;;;;;5092514;28;20193;-59
2021/12/16 16:59:40;;;;;;;8.20;2.27;;;9.00;99.90;;;;;;5102315;28;20234;-59
2021/12/16 17:02:24;;;;;;;8.57;2.30;;;9.00;99.90;;;;;;5098210;28;20201;-59
2021/12/16 17:05:00;;;;;;;12.20;2.80;;;9.00;99.90;;;;;;5102009;28;20194;-59
2021/12/16 17:07:28;;;;;;;15.87;2.97;;;9.00;99.90;;;;;;5080455;28;20220;-59
2021/12/16 17:09:57;;;;;;;10.23;2.63;;;9.00;99.90;;;;;;5098220;28;20203;-59
2021/12/16 17:12:34;;;;;;;6.63;2.00;;;9.00;99.90;;;;;;5088284;28;20188;-59
2021/12/16 17:15:21;;;;;;;9.73;2.67;;;9.00;99.90;;;;;;5090946;28;20623;-59
2021/12/16 17:17:48;;;;;;;15.43;3.13;;;9.00;99.90;;;;;;5093817;28;20211;-58
2021/12/16 17:20:17;;;;;;;15.67;3.33;;;9.00;99.90;;;;;;5109192;28;20199;-58
2021/12/16 17:22:49;;;;;;;11.53;2.73;;;9.00;99.90;;;;;;5109274;28;20204;-58
2021/12/16 17:25:20;;;;;;;7.53;2.10;;;8.90;99.90;;;;;;5103203;28;20547;-58
2021/12/16 17:27:52;;;;;;;7.90;1.73;;;8.90;99.90;;;;;;5105326;28;20210;-59
2021/12/16 17:30:25;;;;;;;9.73;2.20;;;8.90;99.90;;;;;;5099089;28;20224;-61
2021/12/16 17:32:54;;;;;;;15.00;3.03;;;8.90;99.90;;;;;;5101269;28;20213;-59
2021/12/16 17:35:24;;;;;;;7.07;2.50;;;8.90;99.90;;;;;;5106853;28;20196;-58
2021/12/16 17:37:58;;;;;;;14.97;3.20;;;8.90;99.90;;;;;;5094853;28;20211;-58
2021/12/16 17:40:32;;;;;;;8.20;2.90;;;8.90;99.90;;;;;;5098898;28;20195;-59
2021/12/16 17:43:02;;;;;;;7.97;2.30;;;8.90;99.90;;;;;;5092545;28;20193;-58
2021/12/16 17:45:35;;;;;;;9.27;2.20;;;8.90;99.90;;;;;;5090626;28;20188;-58
2021/12/16 17:48:06;;;;;;;10.53;2.50;;;8.80;99.90;;;;;;5096125;28;20201;-58
2021/12/16 17:50:37;;;;;;;7.50;2.00;;;8.90;99.90;;;;;;5099147;28;20209;-58
2021/12/16 17:53:06;;;;;;;16.47;3.10;;;8.90;99.90;;;;;;5102923;28;20199;-59
2021/12/16 17:55:37;;;;;;;16.07;2.60;;;8.80;99.90;;;;;;5103211;28;20203;-59
2021/12/16 17:58:09;;;;;;;9.43;2.47;;;8.80;99.90;;;;;;5105126;27;20193;-59
2021/12/16 18:00:42;;;;;;;12.50;3.03;;;8.80;99.90;;;;;;5105040;28;20603;-59
2021/12/16 18:03:15;;;;;;;8.63;2.10;;;8.80;99.90;;;;;;5077448;28;20232;-58
2021/12/16 18:05:45;;;;;;;8.30;2.57;;;8.80;99.90;;;;;;5115858;27;20196;-58
2021/12/16 18:08:12;;;;;;;4.73;1.80;;;8.80;99.90;;;;;;5108588;27;20578;-59
2021/12/16 18:10:41;;;;;;;8.93;2.33;;;8.80;99.90;;;;;;5085550;28;20474;-59
2021/12/16 18:13:16;;;;;;;13.90;3.23;;;8.70;99.90;;;;;;5075564;28;20236;-59
2021/12/16 18:15:44;;;;;;;10.33;2.80;;;8.70;99.90;;;;;;5112027;27;20191;-59
2021/12/16 18:18:15;;;;;;;10.50;2.50;;;8.70;99.90;;;;;;5093085;28;20652;-58
2021/12/16 18:20:48;;;;;;;4.27;1.90;;;8.70;99.90;;;;;;5097467;28;20295;-59
2021/12/16 18:23:22;;;;;;;7.73;2.40;;;8.70;99.90;;;;;;5094425;27;20214;-59
2021/12/16 18:25:52;;;;;;;5.93;2.10;;;8.70;99.90;;;;;;5113263;27;20690;-59
2021/12/16 18:28:23;;;;;;;5.20;1.77;;;8.70;99.90;;;;;;5110433;27;20196;-59
2021/12/16 18:30:52;;;;;;;11.27;2.47;;;8.70;99.90;;;;;;5109401;27;20818;-60
2021/12/16 18:33:22;;;;;;;3.50;1.73;;;8.60;99.90;;;;;;5112912;27;20199;-59
2021/12/16 18:35:53;;;;;;;18.80;3.17;;;8.70;99.90;;;;;;5109168;27;20200;-59
2021/12/16 18:38:25;;;;;;;12.37;2.80;;;8.60;99.90;;;;;;5109180;27;20184;-59
2021/12/16 18:40:56;;;;;;;9.20;2.20;;;8.70;99.90;;;;;;5095697;28;20187;-58
2021/12/16 18:43:25;;;;;;;16.83;3.07;;;8.60;99.90;;;;;;5101275;28;20219;-60
2021/12/16 18:45:56;;;;;;;9.53;3.00;;;8.60;99.90;;;;;;5094562;28;20197;-59
2021/12/16 18:48:30;;;;;;;6.40;2.50;;;8.60;99.90;;;;;;5093400;28;20498;-59
2021/12/16 18:51:17;;;;;;;10.40;2.50;;;8.60;99.90;;;;;;5102435;28;20215;-60
2021/12/16 18:56:34;;;;;;;15.77;2.80;;;8.60;99.90;;;;;;5114029;27;20206;-59
2021/12/16 18:59:03;;;;;;;8.17;2.10;;;8.60;99.90;;;;;;5120543;27;20270;-58
2021/12/16 19:01:33;;;;;;;9.50;2.73;;;8.60;99.90;;;;;;5090608;27;20200;-58
2021/12/16 19:04:00;;;;;;;7.30;2.30;;;8.60;99.90;;;;;;5114719;27;20224;-59
2021/12/16 19:06:31;;;;;;;7.97;2.37;;;8.50;99.90;;;;;;5103360;28;20304;-59
2021/12/16 19:09:00;;;;;;;9.43;2.40;;;8.50;99.90;;;;;;5098422;28;20334;-59
2021/12/16 19:11:32;;;;;;;6.37;2.33;;;8.50;99.90;;;;;;5088480;28;20753;-59
2021/12/16 19:14:01;;;;;;;6.87;2.33;;;8.50;99.90;;;;;;5090684;28;20672;-59
2021/12/16 19:16:29;;;;;;;8.30;2.67;;;8.50;99.90;;;;;;5097285;28;20204;-58
2021/12/16 19:18:56;;;;;;;4.87;1.90;;;8.50;99.90;;;;;;5106753;27;20197;-59
2021/12/16 19:21:24;;;;;;;4.83;1.80;;;8.50;99.90;;;;;;5090759;27;20207;-58
2021/12/16 19:23:55;;;;;;;5.50;1.93;;;8.50;99.90;;;;;;5097495;28;20200;-59
2021/12/16 19:26:23;;;;;;;15.93;3.53;;;8.50;99.90;;;;;;5107300;28;20188;-58
2021/12/16 19:28:51;;;;;;;11.37;2.77;;;8.50;99.90;;;;;;5109405;27;20188;-59
2021/12/16 19:31:21;;;;;;;6.23;1.93;;;8.50;99.90;;;;;;5081959;28;20295;-59
2021/12/16 19:33:51;;;;;;;5.53;1.57;;;8.50;99.90;;;;;;5110545;27;20241;-59
2021/12/16 19:36:19;;;;;;;7.43;1.83;;;8.40;99.90;;;;;;5108087;28;20199;-58
2021/12/16 19:38:47;;;;;;;12.20;2.73;;;8.40;99.90;;;;;;5102639;28;20537;-58
2021/12/16 19:41:18;;;;;;;5.87;1.77;;;8.40;99.90;;;;;;5107024;28;20553;-59
2021/12/16 19:43:46;;;;;;;10.70;3.30;;;8.50;99.90;;;;;;5100052;27;20208;-58
2021/12/16 19:46:13;;;;;;;7.77;2.23;;;8.50;99.90;;;;;;5110533;27;20203;-59
2021/12/16 19:48:43;;;;;;;10.10;2.70;;;8.50;99.90;;;;;;5077216;28;20224;-59